ニジニ・ノヴゴロド の空港の天気 - METARとTAF

ニジニ・ノヴゴロド国際空港 ( UWGG / GOJ ) - ロシア ニジニ・ノヴゴロド
飛行場実況気象(Metar)
観測時間06/15 01:00 MSK (06/14 22:00 UTC)
風向・風速静穏 0m/s
視程10km以上
天気現象地霧
なし
気温15℃
湿度100%
気圧1015hPa
METARUWGG 142200Z 00000MPS 9999 MIFG NSC 15/15 Q1015 R36R/090070 TEMPO 1500 BR
過去の天気等 Google飛行場航空写真 Wunderground天気予報

過去48時間のMETAR

飛行場予報(TAF)
発表時間: 6/14 22:52 MSK (6/14 19:52 UTC)
予報対象時間: 15日0時 MSK ~ 16日0時 MSK
風向・風速南南西 3m/s 瞬間風速 9m/s
視程10km以上
全天の4割程度の雲 雲底高度 610m
15日0時 MSK ~ 15日6時 MSK に一時的に
視程1500m
天気現象もや
TAF UWGG 141952Z 1421/1521 20003G09MPS 9999 SCT020 TX26/1512Z TN14/1503Z
TEMPO 1421/1503 1500 BR